Time;durP1;ratioP1;P1;durP2;ratioP2;P2;SDS_P1;SDS_P2;PMS_P1;PMS_P2;Temp;Humidity;BMP_temperature;BMP_pressure;BME280_temperature;BME280_humidity;BME280_pressure;Samples;Min_cycle;Max_cycle;Signal;HPM_P1;HPM_P2
2023/12/09 00:01:42;;;;;;;27.92;19.55;;;;;;;4.92;100.00;98423.50;5020421;28;20024;-68
2023/12/09 00:04:07;;;;;;;30.27;20.60;;;;;;;4.92;100.00;98428.66;5044171;28;20341;-70
2023/12/09 00:06:35;;;;;;;31.20;20.27;;;;;;;4.89;100.00;98418.59;5045911;28;20028;-69
2023/12/09 00:09:03;;;;;;;29.35;19.95;;;;;;;4.77;100.00;98428.03;5022602;28;20095;-69
2023/12/09 00:11:29;;;;;;;29.20;19.83;;;;;;;4.95;100.00;98441.31;5023657;28;20029;-69
2023/12/09 00:14:03;;;;;;;29.88;19.95;;;;;;;4.85;100.00;98426.66;5018958;28;20045;-70
2023/12/09 00:16:30;;;;;;;29.42;19.58;;;;;;;4.96;100.00;98426.66;5026705;28;20104;-70
2023/12/09 00:18:59;;;;;;;28.85;19.52;;;;;;;5.01;100.00;98429.72;5010021;28;20083;-69
2023/12/09 00:21:25;;;;;;;30.77;20.00;;;;;;;4.97;100.00;98420.59;5043926;28;20025;-69
2023/12/09 00:23:50;;;;;;;27.38;19.67;;;;;;;4.88;100.00;98386.03;5020602;28;20043;-70
2023/12/09 00:26:15;;;;;;;26.90;18.65;;;;;;;5.09;100.00;98413.69;5027049;28;20520;-68
2023/12/09 00:28:47;;;;;;;28.83;20.13;;;;;;;5.13;100.00;98409.94;5048285;28;20035;-68
2023/12/09 00:31:15;;;;;;;28.02;19.20;;;;;;;5.17;100.00;98422.50;5030911;28;20024;-69
2023/12/09 00:33:40;;;;;;;29.00;20.42;;;;;;;5.07;100.00;98423.31;5038471;28;20040;-70
2023/12/09 00:36:08;;;;;;;26.88;17.77;;;;;;;5.09;100.00;98419.69;5032612;28;20519;-69
2023/12/09 00:38:36;;;;;;;30.85;20.42;;;;;;;5.09;100.00;98424.00;5031291;28;20111;-70
2023/12/09 00:41:06;;;;;;;26.40;18.67;;;;;;;5.15;100.00;98406.34;5011563;28;20707;-69
2023/12/09 00:43:32;;;;;;;25.98;18.70;;;;;;;5.22;100.00;98406.69;5034626;28;20036;-69
2023/12/09 00:45:57;;;;;;;26.55;19.05;;;;;;;5.22;100.00;98405.84;5016821;28;20017;-70
2023/12/09 00:48:23;;;;;;;26.90;18.75;;;;;;;5.26;100.00;98408.09;5036408;28;20056;-69
2023/12/09 00:50:48;;;;;;;26.30;18.52;;;;;;;5.30;100.00;98419.00;5026249;28;20090;-70
2023/12/09 00:53:14;;;;;;;27.52;19.63;;;;;;;5.13;100.00;98410.78;5023677;28;20127;-70
2023/12/09 00:55:39;;;;;;;27.35;19.90;;;;;;;5.01;100.00;98417.66;5027394;28;20040;-69
2023/12/09 00:58:07;;;;;;;29.25;19.35;;;;;;;4.89;100.00;98415.19;5031237;28;20124;-69
2023/12/09 01:00:32;;;;;;;27.55;19.50;;;;;;;4.96;100.00;98418.94;5031008;28;20047;-69
2023/12/09 01:02:57;;;;;;;27.90;20.55;;;;;;;5.03;100.00;98429.63;5028546;28;20029;-70
2023/12/09 01:05:23;;;;;;;29.17;19.85;;;;;;;4.96;100.00;98432.63;5042212;28;20025;-69
2023/12/09 01:07:53;;;;;;;30.10;20.58;;;;;;;4.80;100.00;98402.06;5035311;28;20477;-70
2023/12/09 01:10:37;;;;;;;28.75;19.88;;;;;;;4.89;100.00;98413.44;5032788;28;20033;-69
2023/12/09 01:13:05;;;;;;;27.50;19.45;;;;;;;5.06;100.00;98439.72;5031455;28;20024;-70
2023/12/09 01:15:31;;;;;;;29.90;20.27;;;;;;;4.81;100.00;98424.28;5032807;28;20033;-71
2023/12/09 01:17:56;;;;;;;28.38;20.10;;;;;;;4.82;100.00;98431.09;5017460;28;20025;-69
2023/12/09 01:20:21;;;;;;;28.55;19.67;;;;;;;4.92;100.00;98426.06;5026364;28;20041;-69
2023/12/09 01:22:47;;;;;;;29.85;20.25;;;;;;;4.96;100.00;98436.97;5018062;28;20148;-69
2023/12/09 01:25:14;;;;;;;28.23;19.70;;;;;;;5.04;100.00;98431.25;5018926;28;20114;-70
2023/12/09 01:27:40;;;;;;;29.13;19.98;;;;;;;5.00;100.00;98426.34;5030751;28;20032;-70
2023/12/09 01:30:06;;;;;;;28.10;19.60;;;;;;;5.02;100.00;98426.25;5032625;28;20040;-70
2023/12/09 01:32:31;;;;;;;29.98;20.75;;;;;;;5.07;100.00;98433.59;5019671;28;20150;-71
2023/12/09 01:35:00;;;;;;;28.88;19.67;;;;;;;5.11;100.00;98441.00;5020049;28;20419;-69
2023/12/09 01:37:25;;;;;;;29.70;20.03;;;;;;;5.13;100.00;98441.72;5018167;28;20035;-70
2023/12/09 01:39:53;;;;;;;29.65;19.50;;;;;;;4.95;100.00;98405.25;5034404;28;20036;-69
2023/12/09 01:42:19;;;;;;;27.52;18.98;;;;;;;5.11;100.00;98435.00;5031562;28;20060;-70
2023/12/09 01:44:44;;;;;;;33.10;21.80;;;;;;;5.12;100.00;98440.06;5035425;28;20119;-69
2023/12/09 01:47:15;;;;;;;27.10;19.20;;;;;;;5.12;100.00;98442.63;5034254;28;20035;-70
2023/12/09 01:49:43;;;;;;;29.25;20.23;;;;;;;5.18;100.00;98441.34;5034311;28;20029;-68
2023/12/09 01:52:08;;;;;;;29.60;20.23;;;;;;;5.12;100.00;98440.06;5018816;28;20029;-71
2023/12/09 01:54:34;;;;;;;29.83;20.50;;;;;;;5.11;100.00;98453.91;5036148;28;20051;-68
2023/12/09 01:57:01;;;;;;;29.80;20.52;;;;;;;5.16;100.00;98456.13;5030359;28;20025;-68
2023/12/09 01:59:27;;;;;;;29.35;20.92;;;;;;;5.16;100.00;98481.91;5019662;28;20134;-69
2023/12/09 02:01:53;;;;;;;28.65;20.92;;;;;;;5.12;100.00;98483.06;5035773;28;20054;-69
2023/12/09 02:04:19;;;;;;;27.60;19.92;;;;;;;4.94;100.00;98485.22;5021819;28;20040;-71
2023/12/09 02:06:44;;;;;;;28.33;19.75;;;;;;;4.94;100.00;98472.34;5020707;28;20033;-70
2023/12/09 02:09:10;;;;;;;27.98;19.13;;;;;;;4.71;100.00;98436.22;5054818;28;20095;-69
2023/12/09 02:12:03;;;;;;;25.10;18.13;;;;;;;5.04;100.00;98483.63;5037907;28;20107;-70
2023/12/09 02:14:29;;;;;;;24.55;18.20;;;;;;;5.12;100.00;98483.88;5040498;28;20033;-70
2023/12/09 02:17:01;;;;;;;25.20;17.88;;;;;;;5.14;100.00;98489.75;5036499;28;20029;-69
2023/12/09 02:19:29;;;;;;;26.35;18.58;;;;;;;4.88;100.00;98455.59;5037930;28;20668;-71
2023/12/09 02:22:09;;;;;;;27.48;19.60;;;;;;;5.02;100.00;98495.81;5048487;28;20082;-70
2023/12/09 02:24:37;;;;;;;25.38;18.20;;;;;;;5.05;100.00;98492.19;5044573;28;20043;-69
2023/12/09 02:27:19;;;;;;;28.55;20.58;;;;;;;5.10;100.00;98497.81;5021658;28;20036;-70
2023/12/09 02:29:55;;;;;;;30.80;20.42;;;;;;;5.14;100.00;98488.94;5026070;28;20040;-69
2023/12/09 02:32:23;;;;;;;27.83;19.88;;;;;;;5.03;100.00;98468.28;5052709;28;20033;-68
2023/12/09 02:34:49;;;;;;;29.10;19.55;;;;;;;5.30;100.00;98506.66;5018137;28;20028;-71
2023/12/09 02:37:15;;;;;;;26.77;19.60;;;;;;;5.27;100.00;98494.00;5021998;28;20643;-69
2023/12/09 02:39:43;;;;;;;28.30;19.63;;;;;;;5.30;100.00;98509.25;5020039;28;20040;-69
2023/12/09 02:42:09;;;;;;;29.15;19.80;;;;;;;5.04;100.00;98468.16;5019244;28;20170;-69
2023/12/09 02:44:35;;;;;;;28.60;19.35;;;;;;;5.27;100.00;98507.69;5021691;28;20018;-69
2023/12/09 02:47:00;;;;;;;26.95;18.70;;;;;;;5.23;100.00;98505.47;5044852;28;20075;-71
2023/12/09 02:49:25;;;;;;;25.23;18.23;;;;;;;4.93;100.00;98463.00;5038231;28;20029;-69
2023/12/09 02:51:51;;;;;;;25.55;18.27;;;;;;;5.22;100.00;98507.25;5017906;28;20813;-69
2023/12/09 02:54:19;;;;;;;28.63;19.10;;;;;;;5.16;100.00;98515.41;5037890;28;20484;-70
2023/12/09 02:56:44;;;;;;;27.58;19.77;;;;;;;5.21;100.00;98510.75;5035197;28;20040;-71
2023/12/09 02:59:12;;;;;;;29.42;20.08;;;;;;;5.05;100.00;98492.19;5023949;28;20029;-70
2023/12/09 03:01:37;;;;;;;28.35;19.63;;;;;;;5.01;100.00;98461.47;5017212;28;20025;-69
2023/12/09 03:04:02;;;;;;;27.75;18.67;;;;;;;5.18;100.00;98467.13;5037616;28;20906;-69
2023/12/09 03:06:30;;;;;;;26.65;17.83;;;;;;;5.22;100.00;98463.41;5037598;28;20036;-69
2023/12/09 03:08:55;;;;;;;27.30;19.52;;;;;;;5.24;100.00;98448.66;5053237;28;20120;-70
2023/12/09 03:11:23;;;;;;;26.42;19.17;;;;;;;5.18;100.00;98443.94;5037746;28;20032;-71
2023/12/09 03:13:51;;;;;;;26.13;17.60;;;;;;;5.19;100.00;98455.91;5034177;28;20029;-70
2023/12/09 03:16:18;;;;;;;24.88;17.17;;;;;;;5.15;100.00;98480.28;5020084;28;20116;-70
2023/12/09 03:18:44;;;;;;;23.73;16.85;;;;;;;5.14;100.00;98499.22;5008276;28;20029;-71
2023/12/09 03:21:14;;;;;;;24.08;16.63;;;;;;;5.12;100.00;98499.34;5018327;28;20029;-69
2023/12/09 03:23:42;;;;;;;24.95;18.05;;;;;;;5.13;100.00;98482.97;5035687;28;20029;-71
2023/12/09 03:26:18;;;;;;;25.50;17.85;;;;;;;5.10;100.00;98490.91;5036431;28;20028;-69
2023/12/09 03:28:44;;;;;;;26.75;17.88;;;;;;;4.68;100.00;98463.94;5028369;28;20053;-70
2023/12/09 03:31:14;;;;;;;26.55;18.05;;;;;;;4.90;100.00;98486.41;5037027;28;20024;-69
2023/12/09 03:33:40;;;;;;;24.27;16.55;;;;;;;4.97;100.00;98469.56;5037187;28;20089;-69
2023/12/09 03:36:09;;;;;;;24.80;17.02;;;;;;;5.07;100.00;98475.66;5034821;28;20140;-70
2023/12/09 03:38:35;;;;;;;22.73;15.95;;;;;;;5.13;100.00;98484.69;5017203;28;20119;-69
2023/12/09 03:41:03;;;;;;;23.70;16.33;;;;;;;5.13;100.00;98482.13;5038983;28;20055;-69
2023/12/09 03:43:28;;;;;;;22.10;15.65;;;;;;;5.12;100.00;98475.34;5053280;28;20031;-71
2023/12/09 03:45:56;;;;;;;24.20;16.42;;;;;;;4.87;100.00;98474.53;5035742;28;20029;-69
2023/12/09 03:48:25;;;;;;;24.13;16.77;;;;;;;4.94;100.00;98480.06;5034631;28;20013;-69
2023/12/09 03:50:50;;;;;;;22.60;15.55;;;;;;;4.98;100.00;98473.75;5020571;28;20040;-70
2023/12/09 03:53:15;;;;;;;23.92;16.90;;;;;;;5.04;100.00;98475.91;5033006;28;20052;-69
2023/12/09 03:55:43;;;;;;;23.02;15.93;;;;;;;5.07;100.00;98467.94;5035584;28;20021;-70
2023/12/09 03:58:08;;;;;;;23.33;15.70;;;;;;;5.14;100.00;98469.13;5021037;28;20029;-70
2023/12/09 04:00:35;;;;;;;23.45;16.35;;;;;;;5.11;100.00;98469.38;5035006;28;20017;-71
2023/12/09 04:03:00;;;;;;;23.58;15.98;;;;;;;4.79;100.00;98440.81;5041582;28;20103;-70
2023/12/09 04:05:26;;;;;;;25.20;17.02;;;;;;;4.75;100.00;98478.84;5030890;28;20039;-70
2023/12/09 04:07:54;;;;;;;23.27;16.75;;;;;;;4.93;100.00;98468.97;5053906;28;20032;-70
2023/12/09 04:10:21;;;;;;;23.88;16.65;;;;;;;4.92;100.00;98462.16;5034573;28;20025;-69
2023/12/09 04:12:47;;;;;;;23.92;16.02;;;;;;;4.95;100.00;98458.53;5043345;28;20164;-69
2023/12/09 04:15:12;;;;;;;26.50;17.05;;;;;;;4.80;100.00;98451.00;5030880;28;20205;-69
2023/12/09 04:17:38;;;;;;;23.70;16.15;;;;;;;4.93;100.00;98453.50;5010064;28;20040;-69
2023/12/09 04:20:08;;;;;;;25.17;16.73;;;;;;;5.07;100.00;98455.03;5037695;28;20120;-69
2023/12/09 04:22:33;;;;;;;24.35;16.73;;;;;;;4.95;100.00;98441.31;5019923;28;20052;-71
2023/12/09 04:24:59;;;;;;;23.45;14.82;;;;;;;4.73;100.00;98436.94;5030454;28;20477;-70
2023/12/09 04:27:24;;;;;;;23.33;15.00;;;;;;;4.68;100.00;98446.72;5032572;28;20021;-71
2023/12/09 04:29:54;;;;;;;24.83;16.55;;;;;;;4.68;100.00;98445.91;5021867;28;20052;-68
2023/12/09 04:32:20;;;;;;;26.52;17.73;;;;;;;4.65;100.00;98451.28;5044162;28;20055;-69
2023/12/09 04:34:45;;;;;;;26.73;18.08;;;;;;;4.65;100.00;98453.84;5054634;28;20737;-69
2023/12/09 04:37:13;;;;;;;28.90;18.10;;;;;;;4.71;100.00;98440.53;5016751;28;20029;-69
2023/12/09 04:39:40;;;;;;;26.30;17.42;;;;;;;4.68;100.00;98446.72;5042640;28;20036;-70
2023/12/09 04:42:06;;;;;;;26.65;17.70;;;;;;;4.28;100.00;98410.16;5035056;28;20150;-70
2023/12/09 04:44:31;;;;;;;26.95;18.42;;;;;;;4.16;100.00;98417.00;5034282;28;20663;-69
2023/12/09 04:46:56;;;;;;;24.88;16.77;;;;;;;4.48;100.00;98466.19;5020099;28;20040;-68
2023/12/09 04:49:22;;;;;;;26.58;16.90;;;;;;;4.51;100.00;98455.69;5031037;28;20124;-69
2023/12/09 04:51:49;;;;;;;26.52;16.90;;;;;;;4.74;100.00;98468.66;5035694;28;20554;-70
2023/12/09 04:54:15;;;;;;;25.80;16.88;;;;;;;4.59;100.00;98468.81;5012772;28;20070;-70
2023/12/09 04:56:40;;;;;;;27.75;17.65;;;;;;;4.45;100.00;98457.88;5020779;28;20126;-70
2023/12/09 04:59:08;;;;;;;27.25;17.33;;;;;;;4.53;100.00;98464.13;5033508;28;20033;-70
2023/12/09 05:01:36;;;;;;;25.75;16.60;;;;;;;4.53;100.00;98463.31;5020714;28;20115;-69
2023/12/09 05:04:03;;;;;;;26.23;16.90;;;;;;;4.58;100.00;98476.66;5030584;28;20021;-69
2023/12/09 05:06:30;;;;;;;28.38;17.40;;;;;;;4.37;100.00;98442.97;5038566;28;20025;-69
2023/12/09 05:08:55;;;;;;;26.67;16.45;;;;;;;4.60;100.00;98485.94;5029091;28;20131;-70
2023/12/09 05:11:23;;;;;;;26.48;17.17;;;;;;;4.63;100.00;98492.59;5016949;28;20048;-70
2023/12/09 05:13:49;;;;;;;26.77;15.63;;;;;;;4.54;100.00;98501.78;5034005;28;20024;-70
2023/12/09 05:16:14;;;;;;;24.42;15.90;;;;;;;4.64;100.00;98507.13;5034270;28;20075;-70
2023/12/09 05:18:40;;;;;;;25.63;15.82;;;;;;;4.60;100.00;98506.53;5033852;28;20044;-70
2023/12/09 05:21:11;;;;;;;23.08;15.43;;;;;;;4.35;100.00;98470.59;5032603;28;20083;-69
2023/12/09 05:23:39;;;;;;;23.48;15.80;;;;;;;4.47;100.00;98490.28;5034402;28;20048;-70
2023/12/09 05:26:07;;;;;;;23.08;15.43;;;;;;;4.59;100.00;98506.63;5036211;28;20085;-70
2023/12/09 05:28:32;;;;;;;25.10;15.98;;;;;;;4.36;100.00;98457.59;5039596;28;20030;-70
2023/12/09 05:30:57;;;;;;;25.48;15.80;;;;;;;4.62;100.00;98503.84;5034884;28;21229;-69
2023/12/09 05:33:23;;;;;;;28.17;17.23;;;;;;;4.69;100.00;98497.31;5033959;28;20028;-69
2023/12/09 05:35:55;;;;;;;24.17;16.13;;;;;;;4.33;100.00;98457.00;5027440;28;20029;-71
2023/12/09 05:38:23;;;;;;;24.02;15.65;;;;;;;4.54;100.00;98504.38;5038466;28;20041;-69
2023/12/09 05:40:48;;;;;;;23.15;15.20;;;;;;;4.27;100.00;98475.44;5032964;28;20041;-70
2023/12/09 05:43:14;;;;;;;23.17;15.32;;;;;;;4.36;100.00;98500.53;5030156;28;20032;-70
2023/12/09 05:45:39;;;;;;;23.52;14.75;;;;;;;4.40;100.00;98509.69;5033789;28;20652;-71
2023/12/09 05:48:07;;;;;;;24.20;15.63;;;;;;;4.28;100.00;98516.50;5030656;28;20103;-71
2023/12/09 05:50:38;;;;;;;24.20;15.18;;;;;;;4.09;100.00;98472.41;5033432;28;20072;-70
2023/12/09 05:53:05;;;;;;;24.83;15.93;;;;;;;4.37;100.00;98510.72;5033254;28;20052;-69
2023/12/09 05:55:33;;;;;;;26.10;16.63;;;;;;;4.38;100.00;98512.38;5019770;28;20122;-70
2023/12/09 05:57:58;;;;;;;23.25;15.63;;;;;;;4.36;100.00;98509.09;5039698;28;20341;-70
2023/12/09 06:00:24;;;;;;;23.08;14.82;;;;;;;4.20;100.00;98481.03;5032497;28;20047;-70
2023/12/09 06:02:51;;;;;;;23.52;15.50;;;;;;;4.45;100.00;98523.03;5045545;28;20037;-70
2023/12/09 06:05:17;;;;;;;23.77;15.48;;;;;;;4.29;100.00;98528.47;5030897;28;20025;-70
2023/12/09 06:07:45;;;;;;;20.77;14.15;;;;;;;4.31;100.00;98536.91;5016151;28;20792;-71
2023/12/09 06:10:10;;;;;;;22.83;15.13;;;;;;;4.24;100.00;98530.53;5033243;28;20711;-70
2023/12/09 06:12:40;;;;;;;22.05;14.85;;;;;;;3.98;100.00;98489.41;5013740;28;20148;-69
2023/12/09 06:15:08;;;;;;;20.92;13.50;;;;;;;4.16;100.00;98531.06;5029061;28;20029;-68
2023/12/09 06:17:34;;;;;;;20.13;13.07;;;;;;;3.80;100.00;98485.53;5013261;28;20028;-69
2023/12/09 06:19:59;;;;;;;21.45;14.02;;;;;;;4.01;100.00;98524.41;5029617;28;20079;-70
2023/12/09 06:22:25;;;;;;;20.73;13.80;;;;;;;4.08;100.00;98535.91;5049584;28;21282;-70
2023/12/09 06:24:52;;;;;;;21.33;13.65;;;;;;;3.95;100.00;98529.97;5037134;28;20033;-71
2023/12/09 06:27:23;;;;;;;20.23;12.95;;;;;;;3.93;100.00;98536.97;5033390;28;20024;-70
2023/12/09 06:29:51;;;;;;;20.92;13.65;;;;;;;3.91;100.00;98536.25;5035830;28;20029;-70
2023/12/09 06:32:16;;;;;;;18.88;12.82;;;;;;;3.98;100.00;98525.44;5015576;28;20311;-71
2023/12/09 06:34:42;;;;;;;17.55;12.88;;;;;;;4.04;100.00;98525.00;5026131;28;20559;-70
2023/12/09 06:37:07;;;;;;;19.45;13.25;;;;;;;4.08;100.00;98519.66;5027897;28;20033;-69
2023/12/09 06:39:33;;;;;;;18.75;12.35;;;;;;;4.04;100.00;98519.88;5026098;28;20076;-71
2023/12/09 06:41:59;;;;;;;20.48;13.27;;;;;;;3.71;100.00;98494.69;5032404;28;20718;-71
2023/12/09 06:44:25;;;;;;;22.85;14.10;;;;;;;3.89;100.00;98502.91;5046126;28;20029;-70
2023/12/09 06:46:50;;;;;;;19.50;12.63;;;;;;;4.09;100.00;98532.44;5022159;28;20035;-71
2023/12/09 06:49:20;;;;;;;18.27;12.35;;;;;;;4.00;100.00;98528.72;5047587;28;20025;-71
2023/12/09 06:51:47;;;;;;;17.90;11.15;;;;;;;3.95;100.00;98535.13;5033934;28;20053;-71
2023/12/09 06:54:13;;;;;;;15.43;10.38;;;;;;;3.83;100.00;98529.03;5019306;28;21123;-69
2023/12/09 06:56:38;;;;;;;15.18;10.63;;;;;;;3.89;100.00;98527.78;5019062;28;20029;-70
2023/12/09 06:59:04;;;;;;;15.55;10.45;;;;;;;3.83;100.00;98526.47;5020636;28;20057;-71
2023/12/09 07:01:29;;;;;;;16.63;11.23;;;;;;;3.58;100.00;98484.44;5015268;28;20412;-70
2023/12/09 07:03:57;;;;;;;17.85;11.80;;;;;;;3.99;100.00;98544.25;5018894;28;20222;-71
2023/12/09 07:06:27;;;;;;;14.75;10.05;;;;;;;3.88;100.00;98526.16;5036215;28;20119;-69
2023/12/09 07:08:57;;;;;;;;;;;;;;;3.87;100.00;98561.38;5035702;28;20043;-69
2023/12/09 07:11:22;;;;;;;;;;;;;;;3.75;100.00;98554.47;5030963;28;19923;-70
2023/12/09 07:13:48;;;;;;;15.80;10.38;;;;;;;3.77;100.00;98562.91;5032708;28;19921;-72
2023/12/09 07:16:14;;;;;;;17.25;11.30;;;;;;;3.77;100.00;98552.63;5032904;28;20110;-71
2023/12/09 07:18:46;;;;;;;16.83;11.68;;;;;;;3.77;100.00;98548.28;5019561;28;20036;-71
2023/12/09 07:21:12;;;;;;;19.27;11.63;;;;;;;3.52;100.00;98509.72;5049220;28;20064;-71
2023/12/09 07:23:38;;;;;;;17.55;11.63;;;;;;;3.69;100.00;98545.41;5043889;28;20064;-69
2023/12/09 07:26:04;;;;;;;19.92;12.38;;;;;;;3.81;100.00;98548.91;5037530;28;20100;-70
2023/12/09 07:28:29;;;;;;;18.52;11.20;;;;;;;3.85;100.00;98556.31;5013055;28;20136;-69
2023/12/09 07:30:55;;;;;;;17.60;11.60;;;;;;;3.95;100.00;98558.28;5034102;28;20525;-71
2023/12/09 07:33:23;;;;;;;17.23;11.77;;;;;;;3.74;100.00;98558.81;5033032;28;20132;-69
2023/12/09 07:35:48;;;;;;;17.65;11.43;;;;;;;3.90;100.00;98565.47;5032685;28;20048;-70
2023/12/09 07:38:14;;;;;;;16.67;10.73;;;;;;;3.93;100.00;98557.56;5031382;28;20053;-72
2023/12/09 07:40:39;;;;;;;19.13;11.25;;;;;;;3.77;100.00;98532.84;5033364;28;20751;-69
2023/12/09 07:43:06;;;;;;;16.70;11.32;;;;;;;3.80;100.00;98537.81;5015292;28;20040;-68
2023/12/09 07:45:32;;;;;;;17.45;11.10;;;;;;;3.94;100.00;98543.75;5017898;28;20096;-71
2023/12/09 07:48:05;;;;;;;18.13;11.63;;;;;;;4.00;100.00;98541.59;5008489;28;20049;-69
2023/12/09 07:50:36;;;;;;;17.90;11.55;;;;;;;4.03;100.00;98548.25;5033307;28;20021;-70
2023/12/09 07:53:02;;;;;;;17.30;11.77;;;;;;;4.06;100.00;98552.41;5037156;28;20044;-69
2023/12/09 07:55:28;;;;;;;16.25;11.07;;;;;;;4.10;100.00;98566.69;5029219;28;20200;-69
2023/12/09 07:57:53;;;;;;;15.70;10.73;;;;;;;3.99;100.00;98562.28;5031202;28;20029;-70
2023/12/09 08:00:18;;;;;;;17.65;11.73;;;;;;;3.99;100.00;98575.94;5033639;28;20025;-68
2023/12/09 08:02:44;;;;;;;16.95;11.05;;;;;;;3.84;100.00;98535.84;5032480;28;20029;-71
2023/12/09 08:05:12;;;;;;;15.48;10.55;;;;;;;4.17;100.00;98567.91;5028678;28;20018;-69
2023/12/09 08:07:38;;;;;;;20.20;11.15;;;;;;;4.19;100.00;98560.91;5034161;28;20037;-69
2023/12/09 08:10:04;;;;;;;16.10;10.70;;;;;;;4.11;100.00;98576.88;5029249;28;20025;-70
2023/12/09 08:12:31;;;;;;;17.35;10.70;;;;;;;4.07;100.00;98574.63;5030162;28;20080;-68
2023/12/09 08:14:59;;;;;;;15.10;10.57;;;;;;;3.95;100.00;98547.97;5026155;28;21042;-70
2023/12/09 08:17:27;;;;;;;15.45;10.20;;;;;;;4.27;100.00;98579.25;5036054;28;20127;-70
2023/12/09 08:19:53;;;;;;;15.07;9.60;;;;;;;4.39;100.00;98590.44;5041875;28;20037;-72
2023/12/09 08:22:18;;;;;;;15.75;9.70;;;;;;;4.36;100.00;98596.63;5038186;28;20098;-69
2023/12/09 08:24:46;;;;;;;15.80;10.18;;;;;;;4.13;100.00;98571.63;5025768;28;20451;-69
2023/12/09 08:27:11;;;;;;;15.18;9.05;;;;;;;4.41;100.00;98609.97;5032880;28;20057;-68
2023/12/09 08:29:36;;;;;;;13.98;8.68;;;;;;;4.52;100.00;98614.38;5014180;28;20636;-70
2023/12/09 08:32:03;;;;;;;13.85;8.82;;;;;;;4.26;100.00;98564.72;5023480;28;20164;-69
2023/12/09 08:34:31;;;;;;;14.13;8.90;;;;;;;4.57;100.00;98604.59;5042693;28;20025;-69
2023/12/09 08:36:57;;;;;;;12.18;8.52;;;;;;;4.54;100.00;98611.72;5034315;28;20048;-70
2023/12/09 08:39:23;;;;;;;13.18;8.77;;;;;;;4.71;100.00;98602.81;5005508;28;20065;-68
2023/12/09 08:41:48;;;;;;;14.73;8.75;;;;;;;4.79;100.00;98603.09;5036826;28;20120;-71
2023/12/09 08:44:14;;;;;;;12.70;8.45;;;;;;;4.85;100.00;98599.25;5027593;28;20041;-69
2023/12/09 08:46:45;;;;;;;13.25;8.25;;;;;;;4.84;100.00;98589.88;5032626;28;20048;-70
2023/12/09 08:49:12;;;;;;;12.23;7.97;;;;;;;4.70;100.00;98565.94;5046594;28;20294;-70
2023/12/09 08:51:50;;;;;;;12.43;8.48;;;;;;;4.82;100.00;98585.66;5015311;28;20616;-70
2023/12/09 08:54:17;;;;;;;13.02;8.45;;;;;;;4.86;100.00;98577.72;5028025;28;20053;-69
2023/12/09 08:56:42;;;;;;;12.75;8.77;;;;;;;4.92;100.00;98575.53;5026247;28;20128;-69
2023/12/09 08:59:09;;;;;;;12.05;8.13;;;;;;;5.01;100.00;98579.19;5025774;28;20067;-71
2023/12/09 09:01:37;;;;;;;16.35;9.40;;;;;;;5.04;100.00;98578.16;5045348;28;20024;-68
2023/12/09 09:04:03;;;;;;;12.55;8.48;;;;;;;5.13;100.00;98580.06;5045243;28;21012;-69
2023/12/09 09:06:31;;;;;;;17.25;10.93;;;;;;;5.16;100.00;98596.13;5022952;28;20031;-70
2023/12/09 09:08:58;;;;;;;14.27;10.45;;;;;;;5.21;100.00;98582.91;5026264;28;20162;-68
2023/12/09 09:11:26;;;;;;;17.25;11.00;;;;;;;5.22;100.00;98581.16;5025663;28;20025;-68
2023/12/09 09:13:51;;;;;;;17.63;10.77;;;;;;;4.98;100.00;98548.50;5012924;28;20044;-69
2023/12/09 09:16:19;;;;;;;20.58;12.85;;;;;;;5.11;100.00;98572.47;5035129;28;20116;-70
2023/12/09 09:18:44;;;;;;;15.73;10.52;;;;;;;5.16;100.00;98572.13;5034380;28;20021;-69
2023/12/09 09:21:12;;;;;;;16.48;10.05;;;;;;;5.05;100.00;98583.19;5032947;28;20079;-68
2023/12/09 09:23:37;;;;;;;14.85;9.35;;;;;;;5.22;100.00;98578.56;5033582;28;20033;-69
2023/12/09 09:26:04;;;;;;;13.10;9.43;;;;;;;5.15;100.00;98558.41;5033696;28;20128;-69
2023/12/09 09:28:32;;;;;;;14.13;9.55;;;;;;;5.25;100.00;98580.94;5020053;28;20028;-69
2023/12/09 09:30:57;;;;;;;14.63;9.93;;;;;;;5.23;100.00;98593.13;5024200;28;20033;-69
2023/12/09 09:33:25;;;;;;;12.70;8.77;;;;;;;5.27;100.00;98587.63;5018042;28;20040;-69
2023/12/09 09:35:54;;;;;;;11.90;7.40;;;;;;;5.36;100.00;98599.84;5020099;28;20077;-69
2023/12/09 09:38:20;;;;;;;16.80;10.15;;;;;;;5.41;100.00;98603.84;5016809;28;20039;-71
2023/12/09 09:40:47;;;;;;;12.55;7.97;;;;;;;5.42;100.00;98616.66;5032005;28;20045;-69
2023/12/09 09:43:20;;;;;;;11.05;7.05;;;;;;;5.53;100.00;98619.25;5031146;28;20029;-66
2023/12/09 09:45:47;;;;;;;10.80;6.68;;;;;;;5.41;100.00;98606.44;5014858;28;20120;-69
2023/12/09 09:48:16;;;;;;;10.02;6.72;;;;;;;5.57;100.00;98620.66;5011277;28;20024;-68
2023/12/09 09:50:45;;;;;;;10.20;6.28;;;;;;;5.58;100.00;98601.69;5017796;28;20037;-69
2023/12/09 09:53:12;;;;;;;10.05;5.68;;;;;;;5.73;100.00;98604.03;5031476;28;20426;-69
2023/12/09 09:55:40;;;;;;;10.57;6.78;;;;;;;5.75;100.00;98610.75;5042072;28;20021;-69
2023/12/09 09:58:06;;;;;;;10.20;6.43;;;;;;;5.53;100.00;98572.00;5025985;28;20040;-69
2023/12/09 10:00:32;;;;;;;11.18;6.45;;;;;;;5.59;100.00;98574.13;5017835;28;20032;-68
2023/12/09 10:02:57;;;;;;;10.15;6.32;;;;;;;5.69;100.00;98615.53;5022110;28;20219;-70
2023/12/09 10:05:23;;;;;;;9.07;5.82;;;;;;;5.73;100.00;98620.38;5014813;28;20136;-69
2023/12/09 10:07:50;;;;;;;9.77;5.65;;;;;;;5.82;100.00;98612.88;5026837;28;20026;-69
2023/12/09 10:10:16;;;;;;;8.80;5.72;;;;;;;5.74;100.00;98578.13;5031874;28;20037;-69
2023/12/09 10:12:42;;;;;;;8.75;5.30;;;;;;;6.00;100.00;98623.59;5017182;28;20078;-69
2023/12/09 10:15:11;;;;;;;9.63;5.50;;;;;;;6.16;100.00;98617.16;5049379;28;20750;-68
2023/12/09 10:17:39;;;;;;;8.65;5.25;;;;;;;5.92;100.00;98581.09;5028245;28;20029;-68
2023/12/09 10:20:06;;;;;;;8.27;4.88;;;;;;;6.12;100.00;98612.38;5034674;28;20025;-68
2023/12/09 10:22:32;;;;;;;7.60;4.75;;;;;;;6.07;100.00;98617.03;5033436;28;20025;-70
2023/12/09 10:24:57;;;;;;;8.00;4.60;;;;;;;6.08;100.00;98605.78;5035039;28;20037;-70
2023/12/09 10:27:24;;;;;;;7.60;4.80;;;;;;;6.10;100.00;98602.16;5034248;28;20029;-70
2023/12/09 10:29:55;;;;;;;7.55;4.57;;;;;;;6.17;100.00;98594.78;5036646;28;20047;-69
2023/12/09 10:32:24;;;;;;;7.38;4.40;;;;;;;6.10;100.00;98580.69;5018581;28;20071;-67
2023/12/09 10:34:50;;;;;;;7.32;4.32;;;;;;;5.90;100.00;98539.09;5030111;28;20083;-70
2023/12/09 10:37:17;;;;;;;7.93;4.40;;;;;;;6.05;100.00;98557.78;5017030;28;20032;-68
2023/12/09 10:39:48;;;;;;;8.15;4.75;;;;;;;6.08;100.00;98561.91;5017553;28;20056;-68
2023/12/09 10:42:15;;;;;;;7.53;4.47;;;;;;;5.97;100.00;98560.16;5033205;28;21243;-67
2023/12/09 10:44:42;;;;;;;7.97;4.60;;;;;;;6.12;100.00;98561.53;5031450;28;20036;-68
2023/12/09 10:47:09;;;;;;;7.38;4.47;;;;;;;6.09;100.00;98576.44;5031610;28;20164;-69
2023/12/09 10:49:35;;;;;;;7.95;4.45;;;;;;;6.05;100.00;98575.03;5030712;28;20801;-68
2023/12/09 10:52:00;;;;;;;7.55;4.57;;;;;;;5.99;100.00;98567.75;5025784;28;20033;-68
2023/12/09 10:54:31;;;;;;;8.13;4.95;;;;;;;5.93;100.00;98561.25;5031445;28;20033;-68
2023/12/09 10:56:59;;;;;;;7.00;4.40;;;;;;;5.98;100.00;98554.03;5025597;28;20091;-68
2023/12/09 10:59:27;;;;;;;7.80;4.93;;;;;;;5.65;100.00;98509.16;5033500;28;20029;-68
2023/12/09 11:01:52;;;;;;;6.80;4.15;;;;;;;5.83;100.00;98547.44;5045013;28;20025;-70
2023/12/09 11:04:18;;;;;;;6.93;4.20;;;;;;;5.43;100.00;98476.44;5009543;28;20976;-68
2023/12/09 11:06:48;;;;;;;7.10;4.25;;;;;;;5.92;100.00;98537.22;5013720;28;21285;-68
2023/12/09 11:09:14;;;;;;;8.80;5.10;;;;;;;5.96;100.00;98533.50;5028563;28;20033;-69
2023/12/09 11:11:43;;;;;;;8.10;4.75;;;;;;;5.91;100.00;98522.69;5030228;28;20706;-69
2023/12/09 11:14:10;;;;;;;7.03;4.13;;;;;;;5.91;100.00;98535.59;5036825;28;20029;-70
2023/12/09 11:16:42;;;;;;;8.43;5.13;;;;;;;6.09;100.00;98537.72;5029860;28;20049;-68
2023/12/09 11:19:14;;;;;;;7.43;4.45;;;;;;;6.04;100.00;98534.66;5047450;28;20400;-69
2023/12/09 11:21:48;;;;;;;8.13;4.75;;;;;;;6.10;100.00;98534.22;5033613;28;20053;-70